Time;durP1;ratioP1;P1;durP2;ratioP2;P2;SDS_P1;SDS_P2;PMS_P1;PMS_P2;Temp;Humidity;BMP_temperature;BMP_pressure;BME280_temperature;BME280_humidity;BME280_pressure;Samples;Min_cycle;Max_cycle;Signal;HPM_P1;HPM_P2
2022/07/13 00:00:06;;;;;;;4.20;2.20;;;;;;;;;;4993850;28;20025;-84
2022/07/13 00:02:32;;;;;;;4.50;2.50;;;;;;;;;;4993651;28;20089;-84
2022/07/13 00:04:58;;;;;;;4.95;2.70;;;;;;;;;;4997431;28;20022;-84
2022/07/13 00:07:24;;;;;;;5.22;2.50;;;;;;;;;;5007443;28;20030;-84
2022/07/13 00:09:50;;;;;;;4.60;2.35;;;;;;;;;;5002476;28;20035;-86
2022/07/13 00:12:16;;;;;;;4.88;2.65;;;;;;;;;;4997627;28;20031;-84
2022/07/13 00:14:42;;;;;;;4.32;2.55;;;;;;;;;;4998291;28;20053;-85
2022/07/13 00:17:09;;;;;;;5.90;2.75;;;;;;;;;;4997334;28;20037;-85
2022/07/13 00:19:35;;;;;;;4.80;2.42;;;;;;;;;;4986196;28;20468;-84
2022/07/13 00:22:01;;;;;;;5.40;2.30;;;;;;;;;;4977927;28;20161;-84
2022/07/13 00:24:27;;;;;;;4.65;2.55;;;;;;;;;;4978634;28;20022;-84
2022/07/13 00:26:53;;;;;;;5.43;2.88;;;;;;;;;;4994074;28;20105;-84
2022/07/13 00:29:19;;;;;;;3.95;2.17;;;;;;;;;;5004187;28;20453;-84
2022/07/13 00:31:46;;;;;;;5.93;2.72;;;;;;;;;;4998767;28;20058;-84
2022/07/13 00:34:13;;;;;;;4.43;2.30;;;;;;;;;;4997311;28;20461;-84
2022/07/13 00:36:39;;;;;;;4.97;2.45;;;;;;;;;;4997785;28;20038;-84
2022/07/13 00:39:05;;;;;;;4.22;2.63;;;;;;;;;;5005221;28;20029;-84
2022/07/13 00:41:31;;;;;;;5.43;2.42;;;;;;;;;;4997285;28;20031;-84
2022/07/13 00:44:10;;;;;;;5.07;2.85;;;;;;;;;;5013002;28;20104;-85
2022/07/13 00:46:36;;;;;;;5.53;2.92;;;;;;;;;;5010824;28;20081;-84
2022/07/13 00:49:02;;;;;;;5.25;2.88;;;;;;;;;;5008135;28;20018;-84
2022/07/13 00:51:29;;;;;;;6.38;2.78;;;;;;;;;;5018078;28;20056;-86
2022/07/13 00:53:55;;;;;;;5.28;2.78;;;;;;;;;;5012061;28;20038;-85
2022/07/13 00:56:21;;;;;;;4.93;2.60;;;;;;;;;;5003082;28;20027;-83
2022/07/13 00:58:48;;;;;;;5.30;2.58;;;;;;;;;;5000130;28;20080;-83
2022/07/13 01:01:14;;;;;;;5.50;2.55;;;;;;;;;;4996327;28;20531;-82
2022/07/13 01:03:40;;;;;;;4.72;2.72;;;;;;;;;;4996293;28;20122;-83
2022/07/13 01:06:06;;;;;;;4.78;2.65;;;;;;;;;;5005949;28;20504;-84
2022/07/13 01:08:34;;;;;;;5.50;2.47;;;;;;;;;;4995518;28;20145;-83
2022/07/13 01:11:00;;;;;;;5.43;3.00;;;;;;;;;;4996997;28;20030;-83
2022/07/13 01:13:26;;;;;;;5.32;2.75;;;;;;;;;;4996444;28;20041;-84
2022/07/13 01:15:52;;;;;;;4.55;2.30;;;;;;;;;;5009873;28;20034;-83
2022/07/13 01:18:18;;;;;;;4.47;2.67;;;;;;;;;;5006247;28;20039;-83
2022/07/13 01:20:44;;;;;;;4.72;2.65;;;;;;;;;;4998703;28;20054;-83
2022/07/13 01:23:14;;;;;;;5.20;2.45;;;;;;;;;;4996271;28;20024;-85
2022/07/13 01:25:41;;;;;;;5.38;2.50;;;;;;;;;;4995471;28;20366;-82
2022/07/13 01:28:07;;;;;;;4.75;2.55;;;;;;;;;;4995526;28;20023;-84
2022/07/13 01:30:33;;;;;;;5.35;2.72;;;;;;;;;;5009764;28;20053;-83
2022/07/13 01:32:59;;;;;;;5.70;2.63;;;;;;;;;;4997020;28;20431;-83
2022/07/13 01:35:26;;;;;;;5.65;2.60;;;;;;;;;;4995730;28;20069;-83
2022/07/13 01:37:53;;;;;;;5.60;2.50;;;;;;;;;;4993919;28;20030;-85
2022/07/13 01:40:19;;;;;;;4.38;2.63;;;;;;;;;;4995909;28;20038;-83
2022/07/13 01:42:49;;;;;;;4.63;2.58;;;;;;;;;;4996125;28;20061;-83
2022/07/13 01:45:16;;;;;;;4.60;2.50;;;;;;;;;;4994407;28;20117;-83
2022/07/13 01:47:43;;;;;;;5.07;2.63;;;;;;;;;;4994567;28;20041;-82
2022/07/13 01:50:10;;;;;;;5.50;2.92;;;;;;;;;;4995758;28;20057;-83
2022/07/13 01:52:36;;;;;;;4.78;2.60;;;;;;;;;;4994263;28;20030;-84
2022/07/13 01:55:03;;;;;;;5.97;2.88;;;;;;;;;;4995889;28;20030;-83
2022/07/13 01:57:29;;;;;;;5.05;2.90;;;;;;;;;;4999559;28;20022;-83
2022/07/13 01:59:59;;;;;;;4.70;2.60;;;;;;;;;;5012437;28;20036;-83
2022/07/13 02:02:25;;;;;;;10.77;2.60;;;;;;;;;;4997718;28;20070;-83
2022/07/13 02:04:51;;;;;;;4.93;2.80;;;;;;;;;;4993830;28;20057;-84
2022/07/13 02:07:17;;;;;;;4.55;2.42;;;;;;;;;;4995611;28;20054;-82
2022/07/13 02:09:43;;;;;;;5.28;2.70;;;;;;;;;;4993588;28;20030;-83
2022/07/13 02:12:09;;;;;;;4.70;2.45;;;;;;;;;;4995579;28;20045;-83
2022/07/13 02:14:35;;;;;;;5.05;2.53;;;;;;;;;;4994151;28;20029;-83
2022/07/13 02:17:01;;;;;;;4.35;2.50;;;;;;;;;;4994783;28;20440;-83
2022/07/13 02:19:27;;;;;;;6.18;2.47;;;;;;;;;;4994346;28;20041;-83
2022/07/13 02:21:53;;;;;;;6.20;2.95;;;;;;;;;;4994037;28;20038;-82
2022/07/13 02:24:21;;;;;;;5.13;2.80;;;;;;;;;;5011631;28;20045;-82
2022/07/13 02:26:47;;;;;;;4.88;2.67;;;;;;;;;;5003814;28;20026;-84
2022/07/13 02:29:13;;;;;;;4.88;2.78;;;;;;;;;;5000310;28;20030;-84
2022/07/13 02:31:39;;;;;;;4.18;2.47;;;;;;;;;;4996633;28;20508;-84
2022/07/13 02:34:06;;;;;;;5.32;3.17;;;;;;;;;;4995343;28;20018;-85
2022/07/13 02:36:32;;;;;;;4.65;2.70;;;;;;;;;;5010223;28;20046;-84
2022/07/13 02:38:58;;;;;;;5.03;2.55;;;;;;;;;;4993417;28;20022;-84
2022/07/13 02:41:24;;;;;;;4.78;2.70;;;;;;;;;;4993439;28;20435;-84
2022/07/13 02:43:50;;;;;;;6.40;2.72;;;;;;;;;;4994099;28;20033;-84
2022/07/13 02:46:16;;;;;;;5.10;2.85;;;;;;;;;;4994190;28;20018;-84
2022/07/13 02:48:42;;;;;;;5.93;3.55;;;;;;;;;;4994389;28;20030;-84
2022/07/13 02:51:08;;;;;;;5.40;3.00;;;;;;;;;;4994928;28;20385;-84
2022/07/13 02:53:34;;;;;;;4.28;2.58;;;;;;;;;;4995368;28;20022;-84
2022/07/13 02:56:00;;;;;;;4.95;2.80;;;;;;;;;;4994661;28;20026;-84
2022/07/13 02:58:27;;;;;;;6.95;4.07;;;;;;;;;;4993074;28;20033;-84
2022/07/13 03:00:53;;;;;;;5.60;3.50;;;;;;;;;;4994387;28;20031;-84
2022/07/13 03:03:19;;;;;;;5.55;2.90;;;;;;;;;;4995276;28;20454;-84
2022/07/13 03:05:45;;;;;;;6.40;3.10;;;;;;;;;;4999836;28;20026;-84
2022/07/13 03:08:11;;;;;;;5.28;3.35;;;;;;;;;;4994068;28;20028;-84
2022/07/13 03:10:37;;;;;;;5.15;2.90;;;;;;;;;;5015065;28;20029;-84
2022/07/13 03:13:03;;;;;;;5.50;2.90;;;;;;;;;;4996984;28;20027;-82
2022/07/13 03:15:29;;;;;;;4.85;2.90;;;;;;;;;;4991575;28;20533;-84
2022/07/13 03:17:55;;;;;;;5.05;2.85;;;;;;;;;;5012241;28;20054;-84
2022/07/13 03:20:21;;;;;;;6.35;2.80;;;;;;;;;;4980745;28;20105;-84
2022/07/13 03:22:49;;;;;;;5.25;2.97;;;;;;;;;;5000867;28;20022;-84
2022/07/13 03:25:15;;;;;;;4.88;3.15;;;;;;;;;;5007801;28;20112;-84
2022/07/13 03:27:41;;;;;;;5.32;2.97;;;;;;;;;;5010058;28;20022;-84
2022/07/13 03:30:10;;;;;;;5.47;2.65;;;;;;;;;;4995845;28;20026;-84
2022/07/13 03:32:36;;;;;;;5.45;2.85;;;;;;;;;;4994354;28;20102;-84
2022/07/13 03:35:03;;;;;;;5.40;3.30;;;;;;;;;;4996494;28;20046;-84
2022/07/13 03:37:29;;;;;;;5.93;3.28;;;;;;;;;;4992776;28;20110;-83
2022/07/13 03:39:55;;;;;;;5.45;2.90;;;;;;;;;;4996182;28;20373;-84
2022/07/13 03:42:21;;;;;;;5.05;2.80;;;;;;;;;;4997691;28;20027;-84
2022/07/13 03:44:47;;;;;;;6.03;2.55;;;;;;;;;;5001605;28;20066;-84
2022/07/13 03:47:13;;;;;;;4.90;3.03;;;;;;;;;;5016058;28;20029;-83
2022/07/13 03:49:39;;;;;;;6.85;3.13;;;;;;;;;;5007706;28;20026;-84
2022/07/13 03:52:05;;;;;;;6.72;3.08;;;;;;;;;;5005095;28;20037;-84
2022/07/13 03:54:31;;;;;;;5.18;2.83;;;;;;;;;;4999219;28;20031;-84
2022/07/13 03:56:57;;;;;;;4.90;2.75;;;;;;;;;;4997234;28;20026;-84
2022/07/13 03:59:23;;;;;;;4.65;2.38;;;;;;;;;;4998468;28;20057;-83
2022/07/13 04:01:49;;;;;;;5.35;3.00;;;;;;;;;;5018339;28;20081;-83
2022/07/13 04:04:15;;;;;;;4.57;2.72;;;;;;;;;;5010546;28;20030;-84
2022/07/13 04:06:41;;;;;;;5.07;2.80;;;;;;;;;;5008197;28;20090;-82
2022/07/13 04:09:07;;;;;;;7.72;3.25;;;;;;;;;;5020500;28;20042;-83
2022/07/13 04:11:33;;;;;;;5.05;2.80;;;;;;;;;;5013198;28;20030;-83
2022/07/13 04:13:59;;;;;;;5.50;2.53;;;;;;;;;;5013543;28;20041;-84
2022/07/13 04:16:25;;;;;;;4.40;2.25;;;;;;;;;;5009191;28;20108;-83
2022/07/13 04:18:51;;;;;;;10.57;3.45;;;;;;;;;;5003467;28;20034;-84
2022/07/13 04:21:17;;;;;;;4.90;2.13;;;;;;;;;;4995850;28;20378;-84
2022/07/13 04:23:44;;;;;;;3.83;2.00;;;;;;;;;;4979047;28;20026;-83
2022/07/13 04:26:10;;;;;;;5.15;2.17;;;;;;;;;;4983994;28;20038;-83
2022/07/13 04:28:36;;;;;;;3.92;1.92;;;;;;;;;;5008888;28;20053;-83
2022/07/13 04:31:02;;;;;;;5.75;2.67;;;;;;;;;;5011153;28;20105;-84
2022/07/13 04:33:28;;;;;;;4.93;2.20;;;;;;;;;;4998272;28;20054;-81
2022/07/13 04:35:54;;;;;;;4.82;2.33;;;;;;;;;;4996891;28;20072;-83
2022/07/13 04:38:20;;;;;;;4.72;1.95;;;;;;;;;;5001235;28;20548;-83
2022/07/13 04:40:46;;;;;;;4.45;2.25;;;;;;;;;;5010600;28;20125;-81
2022/07/13 04:43:12;;;;;;;4.00;1.90;;;;;;;;;;5006769;28;20259;-81
2022/07/13 04:45:38;;;;;;;5.28;2.13;;;;;;;;;;4999548;28;20466;-82
2022/07/13 04:48:05;;;;;;;4.50;2.10;;;;;;;;;;4989066;28;20432;-82
2022/07/13 04:50:31;;;;;;;4.85;2.03;;;;;;;;;;4999895;28;20310;-80
2022/07/13 04:52:57;;;;;;;4.15;2.10;;;;;;;;;;5003879;28;20058;-79
2022/07/13 04:55:23;;;;;;;4.43;2.00;;;;;;;;;;4997208;28;20029;-81
2022/07/13 04:57:49;;;;;;;3.80;1.77;;;;;;;;;;5001212;28;20037;-80
2022/07/13 05:00:16;;;;;;;3.60;1.70;;;;;;;;;;5001736;28;20041;-81
2022/07/13 05:02:42;;;;;;;3.50;1.70;;;;;;;;;;5000669;28;20038;-81
2022/07/13 05:05:08;;;;;;;3.53;1.88;;;;;;;;;;5003489;28;20478;-81
2022/07/13 05:07:34;;;;;;;6.90;2.65;;;;;;;;;;5000116;28;20046;-82
2022/07/13 05:10:00;;;;;;;3.72;1.95;;;;;;;;;;4996649;28;20034;-82
2022/07/13 05:12:26;;;;;;;4.60;2.10;;;;;;;;;;4995441;28;20026;-82
2022/07/13 05:14:52;;;;;;;4.32;2.20;;;;;;;;;;4995280;28;20030;-83
2022/07/13 05:17:18;;;;;;;6.07;2.10;;;;;;;;;;4995998;28;20076;-81
2022/07/13 05:19:44;;;;;;;4.63;1.95;;;;;;;;;;4994956;28;20484;-82
2022/07/13 05:22:10;;;;;;;3.55;1.75;;;;;;;;;;4996086;28;20019;-81
2022/07/13 05:24:36;;;;;;;3.90;1.90;;;;;;;;;;4996231;28;20033;-82
2022/07/13 05:27:03;;;;;;;3.83;1.90;;;;;;;;;;4995559;28;20532;-81
2022/07/13 05:29:29;;;;;;;3.42;1.83;;;;;;;;;;4995237;28;20578;-82
2022/07/13 05:31:55;;;;;;;4.72;2.10;;;;;;;;;;4997217;28;20049;-83
2022/07/13 05:34:21;;;;;;;4.03;1.70;;;;;;;;;;4996279;28;20026;-81
2022/07/13 05:36:47;;;;;;;7.38;2.45;;;;;;;;;;4995683;28;20096;-82
2022/07/13 05:39:13;;;;;;;5.75;2.08;;;;;;;;;;4994258;28;20292;-81
2022/07/13 05:41:39;;;;;;;5.22;2.15;;;;;;;;;;4996381;28;20731;-81
2022/07/13 05:44:05;;;;;;;4.63;2.20;;;;;;;;;;4997436;28;20026;-84
2022/07/13 05:46:31;;;;;;;4.63;1.90;;;;;;;;;;4998404;28;20432;-82
2022/07/13 05:48:58;;;;;;;3.70;1.80;;;;;;;;;;4992520;28;20033;-83
2022/07/13 05:51:24;;;;;;;3.53;1.85;;;;;;;;;;5012388;28;20508;-82
2022/07/13 05:53:53;;;;;;;3.55;1.90;;;;;;;;;;5016752;28;20049;-83
2022/07/13 05:56:19;;;;;;;3.97;2.13;;;;;;;;;;5004181;28;20030;-83
2022/07/13 05:58:45;;;;;;;4.45;2.15;;;;;;;;;;5001502;28;20036;-83
2022/07/13 06:01:11;;;;;;;4.07;2.08;;;;;;;;;;4994157;28;20138;-85
2022/07/13 06:03:37;;;;;;;4.05;1.98;;;;;;;;;;5000172;28;20475;-83
2022/07/13 06:06:03;;;;;;;3.90;2.10;;;;;;;;;;5015331;28;20026;-82
2022/07/13 06:08:29;;;;;;;6.55;2.58;;;;;;;;;;5009777;28;20026;-82
2022/07/13 06:10:55;;;;;;;4.50;2.22;;;;;;;;;;4994073;28;20089;-81
2022/07/13 06:13:21;;;;;;;3.95;2.10;;;;;;;;;;4987779;28;20386;-82
2022/07/13 06:15:47;;;;;;;4.00;2.00;;;;;;;;;;4973864;28;20122;-79
2022/07/13 06:18:13;;;;;;;4.25;2.05;;;;;;;;;;4974201;28;20030;-81
2022/07/13 06:20:39;;;;;;;3.92;2.08;;;;;;;;;;4987591;28;20092;-82
2022/07/13 06:23:11;;;;;;;4.20;2.30;;;;;;;;;;4995040;28;20049;-80
2022/07/13 06:25:40;;;;;;;3.70;1.98;;;;;;;;;;4994279;28;20026;-80
2022/07/13 06:28:07;;;;;;;4.97;2.50;;;;;;;;;;4990579;28;20026;-81
2022/07/13 06:30:33;;;;;;;4.05;2.63;;;;;;;;;;4979294;28;20042;-81
2022/07/13 06:33:00;;;;;;;5.35;2.45;;;;;;;;;;4981315;28;20041;-79
2022/07/13 06:35:26;;;;;;;4.57;2.05;;;;;;;;;;4975257;28;20567;-80
2022/07/13 06:37:52;;;;;;;4.28;2.10;;;;;;;;;;4975137;28;20026;-80
2022/07/13 06:40:18;;;;;;;6.35;2.05;;;;;;;;;;4989144;28;20034;-81
2022/07/13 06:42:44;;;;;;;4.75;2.20;;;;;;;;;;4992917;28;20096;-80
2022/07/13 06:45:12;;;;;;;3.85;1.90;;;;;;;;;;5007324;28;20153;-80
2022/07/13 06:47:39;;;;;;;4.65;2.20;;;;;;;;;;4995015;28;20519;-79
2022/07/13 06:50:08;;;;;;;4.13;2.15;;;;;;;;;;4987545;28;20026;-80
2022/07/13 06:52:34;;;;;;;4.38;2.20;;;;;;;;;;4992754;28;20484;-80
2022/07/13 06:55:00;;;;;;;3.80;2.00;;;;;;;;;;4995054;28;20077;-81
2022/07/13 06:57:26;;;;;;;5.47;2.25;;;;;;;;;;4993941;28;20034;-79
2022/07/13 06:59:52;;;;;;;4.22;1.90;;;;;;;;;;4999642;28;20030;-80
2022/07/13 07:02:18;;;;;;;3.95;2.15;;;;;;;;;;4998806;28;20504;-78
2022/07/13 07:04:44;;;;;;;5.60;1.95;;;;;;;;;;4994682;28;20059;-80
2022/07/13 07:07:10;;;;;;;4.03;2.08;;;;;;;;;;4997059;28;20523;-78
2022/07/13 07:09:36;;;;;;;4.03;2.30;;;;;;;;;;5005436;28;20018;-77
2022/07/13 07:12:02;;;;;;;5.57;2.42;;;;;;;;;;5017171;28;20029;-80
2022/07/13 07:14:32;;;;;;;5.75;2.30;;;;;;;;;;5001951;28;20061;-78
2022/07/13 07:16:58;;;;;;;3.90;2.10;;;;;;;;;;4997883;28;20077;-80
2022/07/13 07:19:24;;;;;;;4.97;2.60;;;;;;;;;;4999001;28;20572;-80
2022/07/13 07:21:50;;;;;;;5.22;2.33;;;;;;;;;;4998053;28;20108;-81
2022/07/13 07:24:16;;;;;;;4.50;2.40;;;;;;;;;;4998397;28;20100;-80
2022/07/13 07:26:42;;;;;;;5.50;2.22;;;;;;;;;;4998133;28;20035;-80
2022/07/13 07:29:09;;;;;;;4.50;2.30;;;;;;;;;;4998469;28;20023;-80
2022/07/13 07:31:35;;;;;;;4.10;2.00;;;;;;;;;;4996934;28;20027;-79
2022/07/13 07:34:01;;;;;;;4.28;2.30;;;;;;;;;;5006235;28;20036;-79
2022/07/13 07:36:27;;;;;;;6.53;2.30;;;;;;;;;;5017491;28;20128;-80
2022/07/13 07:38:53;;;;;;;3.75;2.22;;;;;;;;;;4996676;28;20026;-79
2022/07/13 07:41:19;;;;;;;4.20;2.15;;;;;;;;;;4997647;28;20114;-79
2022/07/13 07:43:46;;;;;;;4.78;2.03;;;;;;;;;;5006045;28;20491;-77
2022/07/13 07:46:13;;;;;;;3.97;2.30;;;;;;;;;;5005445;28;20039;-79
2022/07/13 07:48:39;;;;;;;4.75;2.05;;;;;;;;;;4995980;28;20077;-78
2022/07/13 07:51:05;;;;;;;4.80;2.15;;;;;;;;;;5001047;28;20030;-77
2022/07/13 07:53:31;;;;;;;6.00;2.20;;;;;;;;;;4993432;28;20105;-80
2022/07/13 07:55:57;;;;;;;4.35;2.35;;;;;;;;;;4999854;28;20057;-78
2022/07/13 07:58:23;;;;;;;4.53;1.98;;;;;;;;;;5011300;28;20037;-79
2022/07/13 08:00:49;;;;;;;4.40;2.13;;;;;;;;;;5012853;28;20034;-77
2022/07/13 08:03:16;;;;;;;3.92;2.30;;;;;;;;;;5000447;28;20024;-79
2022/07/13 08:05:45;;;;;;;5.03;2.60;;;;;;;;;;5007561;28;20029;-78
2022/07/13 08:08:11;;;;;;;4.53;2.25;;;;;;;;;;5011728;28;20419;-79
2022/07/13 08:10:37;;;;;;;4.60;2.20;;;;;;;;;;4995806;28;20491;-78
2022/07/13 08:13:04;;;;;;;4.38;2.47;;;;;;;;;;4995598;28;20054;-79
2022/07/13 08:15:30;;;;;;;3.90;2.40;;;;;;;;;;4994975;28;20447;-79
2022/07/13 08:17:57;;;;;;;6.72;2.45;;;;;;;;;;4995539;28;20056;-78
2022/07/13 08:20:23;;;;;;;3.67;2.20;;;;;;;;;;4995791;28;20401;-78
2022/07/13 08:22:49;;;;;;;4.82;2.30;;;;;;;;;;4995667;28;20030;-78
2022/07/13 08:25:15;;;;;;;4.72;2.22;;;;;;;;;;4994983;28;20030;-77
2022/07/13 08:27:42;;;;;;;4.45;2.13;;;;;;;;;;4995294;28;20441;-78
2022/07/13 08:30:08;;;;;;;3.45;1.80;;;;;;;;;;4995046;28;20030;-79
2022/07/13 08:32:34;;;;;;;4.03;2.00;;;;;;;;;;4998332;28;20032;-77
2022/07/13 08:40:29;;;;;;;5.85;2.70;;;;;;;;;;4996152;28;20049;-79
2022/07/13 08:42:55;;;;;;;4.45;2.33;;;;;;;;;;5007497;28;20026;-80
2022/07/13 08:45:21;;;;;;;5.45;2.35;;;;;;;;;;4991254;28;20038;-77
2022/07/13 08:47:47;;;;;;;5.57;2.30;;;;;;;;;;4996460;28;20022;-79
2022/07/13 08:50:14;;;;;;;5.32;2.20;;;;;;;;;;5007416;28;20400;-78
2022/07/13 08:52:41;;;;;;;4.65;2.10;;;;;;;;;;4995613;28;20044;-80
2022/07/13 08:55:08;;;;;;;4.28;2.03;;;;;;;;;;4995130;28;20346;-79
2022/07/13 08:57:35;;;;;;;4.10;2.03;;;;;;;;;;4994613;28;20057;-79
2022/07/13 09:00:04;;;;;;;3.67;1.98;;;;;;;;;;4993892;28;20031;-79
2022/07/13 09:02:30;;;;;;;4.47;2.17;;;;;;;;;;4986504;28;20030;-79
2022/07/13 09:04:56;;;;;;;3.40;1.90;;;;;;;;;;5000855;28;20018;-78
2022/07/13 09:07:22;;;;;;;4.88;1.95;;;;;;;;;;4998433;28;20022;-79
2022/07/13 09:09:53;;;;;;;4.25;2.13;;;;;;;;;;4993314;28;20057;-78
2022/07/13 09:12:20;;;;;;;4.00;1.80;;;;;;;;;;4994607;28;20072;-78
2022/07/13 09:14:57;;;;;;;4.68;2.15;;;;;;;;;;4996264;28;20103;-76
2022/07/13 09:17:38;;;;;;;4.65;2.03;;;;;;;;;;4980614;28;20046;-80
2022/07/13 09:20:10;;;;;;;6.00;2.33;;;;;;;;;;4995026;28;20046;-79
2022/07/13 09:22:52;;;;;;;4.10;2.13;;;;;;;;;;4993703;28;20030;-79
2022/07/13 09:25:25;;;;;;;4.85;2.03;;;;;;;;;;4994553;28;20073;-80
2022/07/13 09:27:52;;;;;;;4.18;2.00;;;;;;;;;;4994056;28;20029;-78
2022/07/13 09:30:23;;;;;;;4.57;1.88;;;;;;;;;;4992653;28;20034;-78
2022/07/13 09:32:49;;;;;;;4.45;2.05;;;;;;;;;;4974213;28;20034;-79
2022/07/13 09:35:15;;;;;;;3.38;1.80;;;;;;;;;;4992040;28;20046;-79
2022/07/13 09:37:42;;;;;;;4.82;2.00;;;;;;;;;;4990380;28;20030;-79
2022/07/13 09:40:09;;;;;;;4.97;1.85;;;;;;;;;;4993904;28;20093;-79
2022/07/13 09:42:39;;;;;;;4.38;2.10;;;;;;;;;;4993580;28;20421;-79
2022/07/13 09:47:55;;;;;;;4.10;2.10;;;;;;;;;;5011688;28;20040;-79
2022/07/13 09:50:22;;;;;;;5.47;1.83;;;;;;;;;;5013276;28;20030;-79
2022/07/13 09:52:49;;;;;;;3.85;1.80;;;;;;;;;;5012771;28;20045;-78
2022/07/13 09:55:19;;;;;;;5.25;2.20;;;;;;;;;;5011503;28;20049;-78
2022/07/13 09:57:52;;;;;;;3.65;1.98;;;;;;;;;;5108266;27;20215;-78
2022/07/13 10:00:20;;;;;;;3.17;1.52;;;;;;;;;;5109564;28;20031;-78
2022/07/13 10:02:47;;;;;;;3.25;1.65;;;;;;;;;;5109443;28;20049;-77
2022/07/13 10:05:14;;;;;;;4.43;1.70;;;;;;;;;;5089083;28;20496;-78
2022/07/13 10:07:41;;;;;;;4.55;1.90;;;;;;;;;;5081365;28;20013;-78
2022/07/13 10:10:08;;;;;;;3.80;1.77;;;;;;;;;;5068654;28;20075;-77
2022/07/13 10:12:37;;;;;;;5.78;2.55;;;;;;;;;;5068775;28;20044;-77
2022/07/13 10:15:04;;;;;;;5.00;2.38;;;;;;;;;;5085614;28;20025;-78
2022/07/13 10:17:31;;;;;;;3.97;2.10;;;;;;;;;;5088775;28;20107;-77
2022/07/13 10:19:57;;;;;;;4.72;1.85;;;;;;;;;;5096003;28;20056;-76
2022/07/13 10:22:25;;;;;;;4.38;1.80;;;;;;;;;;5096578;28;20039;-76
2022/07/13 10:24:54;;;;;;;3.33;1.27;;;;;;;;;;5088547;28;20118;-77
2022/07/13 10:27:25;;;;;;;3.08;1.40;;;;;;;;;;5081582;28;20099;-77
2022/07/13 10:29:59;;;;;;;2.40;1.10;;;;;;;;;;5067710;28;20132;-77
2022/07/13 10:32:26;;;;;;;3.88;1.48;;;;;;;;;;5076811;28;20096;-76
2022/07/13 10:35:04;;;;;;;3.42;1.50;;;;;;;;;;5075699;28;20025;-78
2022/07/13 10:37:50;;;;;;;4.38;1.83;;;;;;;;;;5079255;28;20516;-78
2022/07/13 10:40:16;;;;;;;3.70;1.40;;;;;;;;;;5087655;28;20035;-78
2022/07/13 10:42:57;;;;;;;4.25;1.70;;;;;;;;;;5073825;28;20471;-78
2022/07/13 10:45:44;;;;;;;3.25;1.30;;;;;;;;;;5086710;28;20025;-78
2022/07/13 10:48:11;;;;;;;2.67;1.30;;;;;;;;;;5067737;28;20020;-79
2022/07/13 10:51:06;;;;;;;4.10;1.70;;;;;;;;;;5068025;28;20477;-78
2022/07/13 10:53:38;;;;;;;4.68;1.77;;;;;;;;;;5022993;28;20111;-79
2022/07/13 10:56:05;;;;;;;3.97;1.35;;;;;;;;;;5018351;28;20547;-78
2022/07/13 10:58:31;;;;;;;3.50;1.50;;;;;;;;;;5024957;28;20416;-78
2022/07/13 11:01:01;;;;;;;3.17;1.40;;;;;;;;;;5018732;28;20033;-79
2022/07/13 11:03:43;;;;;;;3.88;1.50;;;;;;;;;;5024809;28;20034;-78
2022/07/13 11:06:11;;;;;;;;;;;;;;;;;;5027988;28;20053;-78
2022/07/13 11:08:37;;;;;;;2.58;1.10;;;;;;;;;;5017034;28;20367;-80
2022/07/13 11:11:11;;;;;;;2.92;1.00;;;;;;;;;;5005174;28;20548;-80
2022/07/13 11:13:37;;;;;;;1.90;0.82;;;;;;;;;;4996312;28;20090;-79
2022/07/13 11:16:03;;;;;;;3.25;1.00;;;;;;;;;;5014097;28;20052;-79
2022/07/13 11:18:31;;;;;;;3.47;1.00;;;;;;;;;;5010513;28;20034;-79
2022/07/13 11:21:00;;;;;;;6.30;1.52;;;;;;;;;;5007477;28;20022;-78
2022/07/13 11:26:31;;;;;;;3.55;1.10;;;;;;;;;;4994708;28;20099;-80
2022/07/13 11:29:00;;;;;;;3.17;1.00;;;;;;;;;;4990620;28;20042;-79
2022/07/13 11:31:27;;;;;;;3.58;1.00;;;;;;;;;;5067257;28;20036;-80
2022/07/13 11:33:53;;;;;;;2.05;0.90;;;;;;;;;;5075130;28;20028;-78
2022/07/13 11:36:25;;;;;;;2.28;0.90;;;;;;;;;;5075972;28;20071;-80
2022/07/13 11:38:52;;;;;;;2.40;1.00;;;;;;;;;;5061561;28;20065;-79
2022/07/13 11:41:19;;;;;;;3.08;1.17;;;;;;;;;;5066658;28;20505;-79
2022/07/13 11:43:48;;;;;;;3.17;0.90;;;;;;;;;;5063634;28;20012;-78
2022/07/13 11:46:15;;;;;;;2.42;0.95;;;;;;;;;;5075632;28;20035;-79
2022/07/13 11:48:41;;;;;;;2.63;0.90;;;;;;;;;;5076159;28;20472;-79
2022/07/13 11:51:10;;;;;;;4.22;0.93;;;;;;;;;;5075747;28;20392;-80
2022/07/13 11:53:36;;;;;;;3.35;1.08;;;;;;;;;;5081944;28;20028;-80
2022/07/13 11:56:07;;;;;;;2.97;0.98;;;;;;;;;;5072629;28;20063;-80
2022/07/13 11:58:34;;;;;;;2.30;1.00;;;;;;;;;;5061793;28;20032;-78
2022/07/13 12:01:01;;;;;;;3.33;0.90;;;;;;;;;;5071946;28;20388;-81
2022/07/13 12:03:32;;;;;;;2.50;0.98;;;;;;;;;;5071420;28;20029;-77
2022/07/13 12:05:59;;;;;;;3.78;0.90;;;;;;;;;;5068000;28;20020;-81
2022/07/13 12:08:25;;;;;;;2.58;1.00;;;;;;;;;;5071443;28;20113;-80
2022/07/13 12:10:52;;;;;;;3.90;0.90;;;;;;;;;;5074569;28;20039;-78
2022/07/13 12:13:18;;;;;;;2.38;1.00;;;;;;;;;;5071156;28;20131;-79
2022/07/13 12:15:47;;;;;;;2.72;0.85;;;;;;;;;;5072145;28;20032;-81
2022/07/13 12:18:14;;;;;;;2.40;0.77;;;;;;;;;;5075264;28;20108;-79
2022/07/13 12:20:40;;;;;;;2.17;1.00;;;;;;;;;;5073008;28;20020;-79
2022/07/13 12:23:07;;;;;;;3.67;0.90;;;;;;;;;;5068466;28;20025;-78
2022/07/13 12:25:35;;;;;;;2.10;0.75;;;;;;;;;;5069098;28;20016;-82
2022/07/13 12:28:02;;;;;;;2.30;0.90;;;;;;;;;;5058731;28;20057;-79
2022/07/13 12:30:32;;;;;;;2.22;0.90;;;;;;;;;;5069961;28;20024;-78
2022/07/13 12:32:59;;;;;;;2.63;0.90;;;;;;;;;;5071646;28;20028;-81
2022/07/13 12:35:26;;;;;;;2.05;0.70;;;;;;;;;;5065033;28;20100;-78
2022/07/13 12:37:52;;;;;;;3.70;0.90;;;;;;;;;;5060469;28;20031;-79
2022/07/13 12:40:36;;;;;;;1.88;0.70;;;;;;;;;;5060777;28;20079;-79
2022/07/13 12:43:03;;;;;;;2.42;0.90;;;;;;;;;;5064006;28;20063;-82
2022/07/13 12:45:32;;;;;;;2.30;0.80;;;;;;;;;;5066100;28;20071;-80
2022/07/13 12:47:58;;;;;;;2.22;0.80;;;;;;;;;;5063180;28;20581;-80
2022/07/13 12:50:28;;;;;;;2.47;1.10;;;;;;;;;;5058336;28;20041;-79
2022/07/13 12:53:00;;;;;;;1.95;0.80;;;;;;;;;;5068665;28;20449;-80
2022/07/13 12:55:27;;;;;;;2.22;0.80;;;;;;;;;;5068651;28;20251;-79
2022/07/13 12:57:53;;;;;;;2.53;0.85;;;;;;;;;;5073686;28;20028;-81
2022/07/13 13:00:23;;;;;;;2.53;0.80;;;;;;;;;;5053190;28;20539;-78
2022/07/13 13:02:49;;;;;;;2.30;0.82;;;;;;;;;;5054211;28;20024;-80
2022/07/13 13:05:15;;;;;;;2.33;0.90;;;;;;;;;;5068880;28;20021;-80
2022/07/13 13:07:42;;;;;;;2.47;0.80;;;;;;;;;;5067243;28;20028;-79
2022/07/13 13:10:08;;;;;;;3.40;1.30;;;;;;;;;;5067229;28;20031;-79
2022/07/13 13:12:35;;;;;;;2.75;0.90;;;;;;;;;;5058042;28;20033;-79
2022/07/13 13:15:01;;;;;;;2.83;1.20;;;;;;;;;;5057073;28;20093;-80
2022/07/13 13:17:28;;;;;;;2.42;0.90;;;;;;;;;;5067416;28;20035;-82
2022/07/13 13:19:54;;;;;;;2.28;0.85;;;;;;;;;;5074863;28;20016;-79
2022/07/13 13:22:20;;;;;;;2.50;0.82;;;;;;;;;;5073644;28;20056;-79
2022/07/13 13:24:46;;;;;;;3.42;1.10;;;;;;;;;;5071972;28;20063;-81
2022/07/13 13:27:12;;;;;;;2.38;0.90;;;;;;;;;;5073380;28;20027;-78
2022/07/13 13:32:23;;;;;;;1.98;0.80;;;;;;;;;;5057402;28;20035;-79
2022/07/13 13:34:49;;;;;;;3.10;1.08;;;;;;;;;;5057230;28;20398;-78
2022/07/13 13:37:15;;;;;;;3.38;0.95;;;;;;;;;;5060634;28;20040;-77
2022/07/13 13:39:41;;;;;;;3.25;1.10;;;;;;;;;;5078727;28;20032;-81
2022/07/13 13:42:08;;;;;;;2.72;1.00;;;;;;;;;;5080370;28;20021;-81
2022/07/13 13:44:34;;;;;;;4.60;1.02;;;;;;;;;;5073209;28;20040;-81
2022/07/13 13:47:00;;;;;;;2.20;0.90;;;;;;;;;;5072457;28;20507;-80
2022/07/13 13:49:26;;;;;;;3.40;0.95;;;;;;;;;;5073477;28;20029;-80
2022/07/13 13:51:52;;;;;;;3.47;1.20;;;;;;;;;;5063178;28;20487;-79
2022/07/13 13:54:18;;;;;;;2.22;0.90;;;;;;;;;;5054770;28;20467;-79
2022/07/13 13:56:44;;;;;;;2.35;0.90;;;;;;;;;;5054079;28;20041;-78
2022/07/13 13:59:10;;;;;;;2.53;1.10;;;;;;;;;;5066620;28;21338;-77
2022/07/13 14:01:36;;;;;;;2.97;1.02;;;;;;;;;;5073226;28;20066;-78
2022/07/13 14:04:02;;;;;;;2.92;1.00;;;;;;;;;;5073368;28;20071;-78
2022/07/13 14:06:28;;;;;;;1.73;0.90;;;;;;;;;;5069297;28;20119;-79
2022/07/13 14:08:55;;;;;;;2.85;1.17;;;;;;;;;;5068540;28;20532;-77
2022/07/13 14:11:21;;;;;;;2.05;0.95;;;;;;;;;;5056424;28;20032;-78
2022/07/13 14:13:47;;;;;;;2.47;1.10;;;;;;;;;;5069262;28;20374;-79
2022/07/13 14:16:13;;;;;;;2.85;0.90;;;;;;;;;;5069632;28;20037;-79
2022/07/13 14:18:41;;;;;;;2.60;0.80;;;;;;;;;;5069682;28;20021;-80
2022/07/13 14:21:07;;;;;;;3.65;1.00;;;;;;;;;;5071844;28;20023;-79
2022/07/13 14:23:33;;;;;;;3.63;1.00;;;;;;;;;;5062907;28;20052;-79
2022/07/13 14:25:59;;;;;;;2.80;0.85;;;;;;;;;;5065359;28;20043;-78
2022/07/13 14:28:25;;;;;;;2.13;0.90;;;;;;;;;;5070715;28;20029;-78
2022/07/13 14:30:51;;;;;;;3.50;0.90;;;;;;;;;;5071397;28;20470;-79
2022/07/13 14:33:17;;;;;;;2.42;0.73;;;;;;;;;;5057356;28;20029;-78
2022/07/13 14:35:45;;;;;;;1.67;0.80;;;;;;;;;;5060547;28;20024;-79
2022/07/13 14:38:12;;;;;;;2.90;0.88;;;;;;;;;;5069458;28;20027;-78
2022/07/13 14:40:39;;;;;;;2.78;1.10;;;;;;;;;;5071649;28;20512;-79
2022/07/13 14:43:05;;;;;;;2.13;1.00;;;;;;;;;;5074178;28;20080;-80
2022/07/13 14:45:31;;;;;;;1.83;0.90;;;;;;;;;;5074648;28;20027;-79
2022/07/13 14:47:57;;;;;;;2.33;0.80;;;;;;;;;;5077745;28;20060;-79
2022/07/13 14:50:23;;;;;;;3.70;0.90;;;;;;;;;;5072056;28;20031;-79
2022/07/13 14:52:49;;;;;;;2.33;0.80;;;;;;;;;;5076086;28;20032;-80
2022/07/13 14:55:16;;;;;;;2.65;0.95;;;;;;;;;;5073806;28;20023;-80